createdAt,value
2022-08-09T00:01:16.609Z,18.12
2022-08-09T00:04:00.406Z,18.28
2022-08-09T00:06:32.474Z,18.13
2022-08-09T00:09:04.036Z,18.09
2022-08-09T00:11:58.441Z,17.87
2022-08-09T00:14:22.074Z,18.15
2022-08-09T00:17:04.316Z,17.97
2022-08-09T00:19:34.071Z,18.09
2022-08-09T00:22:03.487Z,18.17
2022-08-09T00:24:32.596Z,18.04
2022-08-09T00:27:01.457Z,17.98
2022-08-09T00:30:10.290Z,17.72
2022-08-09T00:32:26.793Z,18.02
2022-08-09T00:34:58.613Z,17.86
2022-08-09T00:37:30.187Z,17.92
2022-08-09T00:40:09.206Z,17.76
2022-08-09T00:44:11.856Z,17.79
2022-08-09T00:45:31.162Z,17.79
2022-08-09T00:48:05.607Z,18.00
2022-08-09T00:50:33.525Z,17.97
2022-08-09T00:53:10.445Z,17.64
2022-08-09T00:56:04.193Z,17.64
2022-08-09T00:58:31.660Z,17.93
2022-08-09T01:00:59.312Z,17.91
2022-08-09T01:03:46.797Z,17.89
2022-08-09T01:06:19.115Z,17.89
2022-08-09T01:08:56.103Z,18.08
2022-08-09T01:11:29.512Z,18.11
2022-08-09T01:14:23.647Z,18.09
2022-08-09T01:16:55.604Z,18.15
2022-08-09T01:19:42.716Z,18.02
2022-08-09T01:22:35.413Z,17.88
2022-08-09T01:25:12.593Z,17.82
2022-08-09T01:27:42.023Z,17.71
2022-08-09T01:30:28.520Z,17.25
2022-08-09T01:33:00.321Z,17.21
2022-08-09T01:35:37.914Z,17.30
2022-08-09T01:38:15.849Z,17.47
2022-08-09T01:41:04.984Z,17.48
2022-08-09T01:43:51.693Z,17.45
2022-08-09T01:46:24.566Z,17.40
2022-08-09T01:49:10.835Z,17.41
2022-08-09T01:51:53.056Z,17.60
2022-08-09T01:54:26.192Z,17.28
2022-08-09T01:56:56.775Z,17.21
2022-08-09T01:59:24.570Z,17.23
2022-08-09T02:02:03.148Z,17.45
2022-08-09T02:04:35.632Z,17.80
2022-08-09T02:07:15.557Z,17.58
2022-08-09T02:10:07.801Z,17.64
2022-08-09T02:12:36.015Z,17.82
2022-08-09T02:15:07.636Z,17.76
2022-08-09T02:18:01.498Z,17.62
2022-08-09T02:20:32.913Z,17.69
2022-08-09T02:23:12.177Z,17.71
2022-08-09T02:25:52.755Z,17.72
2022-08-09T02:28:35.430Z,17.85
2022-08-09T02:31:07.681Z,17.36
2022-08-09T02:34:06.543Z,17.45
2022-08-09T02:36:36.178Z,17.47
2022-08-09T02:39:14.620Z,17.49
2022-08-09T02:41:57.944Z,17.55
2022-08-09T02:44:30.024Z,17.59
2022-08-09T02:47:02.380Z,17.58
2022-08-09T02:49:38.857Z,17.71
2022-08-09T02:52:14.717Z,17.55
2022-08-09T02:54:54.734Z,17.45
2022-08-09T02:57:26.916Z,17.53
2022-08-09T03:00:21.526Z,17.61
2022-08-09T03:02:58.613Z,17.54
2022-08-09T03:05:34.340Z,17.73
2022-08-09T03:08:04.874Z,17.82
2022-08-09T03:10:36.226Z,17.84
2022-08-09T03:13:08.586Z,17.87
2022-08-09T03:15:40.390Z,17.82
2022-08-09T03:18:31.122Z,17.82
2022-08-09T03:20:59.659Z,17.84
2022-08-09T03:23:27.156Z,17.63
2022-08-09T03:26:03.477Z,17.59
2022-08-09T03:28:34.059Z,17.54
2022-08-09T03:31:10.226Z,17.34
2022-08-09T03:33:52.970Z,17.36
2022-08-09T03:36:27.764Z,17.46
2022-08-09T03:38:57.201Z,17.49
2022-08-09T03:41:44.805Z,17.36
2022-08-09T03:44:13.345Z,17.46
2022-08-09T03:46:44.546Z,17.40
2022-08-09T03:49:17.499Z,17.23
2022-08-09T03:51:58.261Z,17.26
2022-08-09T03:54:31.293Z,17.27
2022-08-09T03:57:04.220Z,17.37
2022-08-09T03:59:53.568Z,17.28
2022-08-09T04:02:26.574Z,17.40
2022-08-09T04:04:58.649Z,17.37
2022-08-09T04:07:33.790Z,17.12
2022-08-09T04:10:20.387Z,17.09
2022-08-09T04:12:49.754Z,17.21
2022-08-09T04:15:42.611Z,17.24
2022-08-09T04:18:08.032Z,17.35
2022-08-09T04:20:36.718Z,17.22
2022-08-09T04:23:09.915Z,17.32
2022-08-09T04:25:38.583Z,17.29
2022-08-09T04:28:06.518Z,17.22
2022-08-09T04:30:33.895Z,17.33
2022-08-09T04:33:02.083Z,17.39
2022-08-09T04:35:29.593Z,17.48
2022-08-09T04:38:03.536Z,17.47
2022-08-09T04:40:48.451Z,17.66
2022-08-09T04:43:25.205Z,17.58
2022-08-09T04:45:54.400Z,17.60
2022-08-09T04:48:23.851Z,17.50
2022-08-09T04:51:01.143Z,17.62
2022-08-09T04:53:29.183Z,17.75
2022-08-09T04:55:59.887Z,17.68
2022-08-09T04:58:29.086Z,17.83
2022-08-09T05:01:00.250Z,17.96
2022-08-09T05:03:40.859Z,17.94
2022-08-09T05:06:26.880Z,18.12
2022-08-09T05:09:00.713Z,18.09
2022-08-09T05:11:35.361Z,17.89
2022-08-09T05:14:06.151Z,18.04
2022-08-09T05:16:43.440Z,18.30
2022-08-09T05:19:15.144Z,18.46
2022-08-09T05:21:47.333Z,18.55
2022-08-09T05:24:24.836Z,18.76
2022-08-09T05:26:53.452Z,18.78
2022-08-09T05:29:24.140Z,19.01
2022-08-09T05:32:02.484Z,19.20
2022-08-09T05:34:32.589Z,19.26
2022-08-09T05:37:05.979Z,19.37
2022-08-09T05:39:43.602Z,19.54
2022-08-09T05:42:17.509Z,19.63
2022-08-09T05:44:51.067Z,19.77
2022-08-09T05:47:22.928Z,19.68
2022-08-09T05:50:30.611Z,19.66
2022-08-09T05:52:44.525Z,19.80
2022-08-09T05:55:21.810Z,20.12
2022-08-09T05:57:57.446Z,20.16
2022-08-09T06:00:29.563Z,20.11
2022-08-09T06:02:59.641Z,20.22
2022-08-09T06:05:50.637Z,20.49
2022-08-09T06:08:19.695Z,20.69
2022-08-09T06:10:57.028Z,20.69
2022-08-09T06:13:28.363Z,20.88
2022-08-09T06:16:05.317Z,21.01
2022-08-09T06:18:35.383Z,21.12
2022-08-09T06:21:05.700Z,21.37
2022-08-09T06:23:57.491Z,21.53
2022-08-09T06:26:22.779Z,21.74
2022-08-09T06:29:00.368Z,22.00
2022-08-09T06:31:39.431Z,22.35
2022-08-09T06:34:22.655Z,22.49
2022-08-09T06:36:59.574Z,22.47
2022-08-09T06:39:48.299Z,22.86
2022-08-09T06:42:30.632Z,22.95
2022-08-09T06:46:03.350Z,22.92
2022-08-09T06:48:00.496Z,23.13
2022-08-09T06:50:31.121Z,23.37
2022-08-09T06:53:00.991Z,23.55
2022-08-09T06:55:33.893Z,23.59
2022-08-09T06:58:04.475Z,23.78
2022-08-09T07:00:52.719Z,24.03
2022-08-09T07:03:27.796Z,24.12
2022-08-09T07:06:03.788Z,24.24
2022-08-09T07:08:37.053Z,24.44
2022-08-09T07:11:06.947Z,24.25
2022-08-09T07:13:45.248Z,24.42
2022-08-09T07:16:42.092Z,24.88
2022-08-09T07:19:15.727Z,24.82
2022-08-09T07:21:57.699Z,24.84
2022-08-09T07:24:40.043Z,24.79
2022-08-09T07:27:27.024Z,24.99
2022-08-09T07:30:01.347Z,25.17
2022-08-09T07:32:32.355Z,25.25
2022-08-09T07:35:10.073Z,25.49
2022-08-09T07:37:43.542Z,25.77
2022-08-09T07:40:17.468Z,25.84
2022-08-09T07:42:55.543Z,25.72
2022-08-09T07:45:40.344Z,26.14
2022-08-09T07:48:28.498Z,25.95
2022-08-09T07:51:09.041Z,25.90
2022-08-09T07:54:07.390Z,26.12
2022-08-09T07:56:45.170Z,26.19
2022-08-09T07:59:25.667Z,26.11
2022-08-09T08:02:09.335Z,26.47
2022-08-09T08:04:40.047Z,26.71
2022-08-09T08:07:15.448Z,26.65
2022-08-09T08:10:08.560Z,26.83
2022-08-09T08:12:45.133Z,26.73
2022-08-09T08:15:24.020Z,26.70
2022-08-09T08:17:58.598Z,26.91
2022-08-09T08:20:32.280Z,27.01
2022-08-09T08:23:16.853Z,27.33
2022-08-09T08:25:53.964Z,27.37
2022-08-09T08:28:35.871Z,27.59
2022-08-09T08:31:13.789Z,27.72
2022-08-09T08:33:52.605Z,27.71
2022-08-09T08:36:29.725Z,27.81
2022-08-09T08:39:00.188Z,27.92
2022-08-09T08:41:41.799Z,27.92
2022-08-09T08:44:27.353Z,27.75
2022-08-09T08:47:04.886Z,27.75
2022-08-09T08:49:48.358Z,28.08
2022-08-09T08:52:53.033Z,28.08
2022-08-09T08:55:07.521Z,28.12
2022-08-09T08:57:37.628Z,28.32
2022-08-09T09:00:17.049Z,28.62
2022-08-09T09:03:08.823Z,28.68
2022-08-09T09:05:59.987Z,29.05
2022-08-09T09:08:40.402Z,29.10
2022-08-09T09:11:13.660Z,29.54
2022-08-09T09:13:57.274Z,29.71
2022-08-09T09:16:32.208Z,29.72
2022-08-09T09:21:58.284Z,29.59
2022-08-09T09:24:33.031Z,29.70
2022-08-09T09:27:03.353Z,29.04
2022-08-09T09:30:12.133Z,29.09
2022-08-09T09:32:34.918Z,28.92
2022-08-09T09:35:10.578Z,29.07
2022-08-09T09:37:41.650Z,28.72
2022-08-09T09:40:11.526Z,28.28
2022-08-09T09:42:39.649Z,28.39
2022-08-09T09:45:25.539Z,28.52
2022-08-09T09:47:56.684Z,28.47
2022-08-09T09:50:49.637Z,29.17
2022-08-09T09:53:57.500Z,29.93
2022-08-09T09:56:30.921Z,30.32
2022-08-09T09:59:00.116Z,30.56
2022-08-09T10:01:37.359Z,30.03
2022-08-09T10:04:23.111Z,29.97
2022-08-09T10:06:58.794Z,30.44
2022-08-09T10:09:54.860Z,30.04
2022-08-09T10:12:28.335Z,29.52
2022-08-09T10:15:50.670Z,29.46
2022-08-09T10:18:12.036Z,29.42
2022-08-09T10:20:45.082Z,30.04
2022-08-09T10:23:17.244Z,30.06
2022-08-09T10:26:08.020Z,30.28
2022-08-09T10:28:38.838Z,30.53
2022-08-09T10:34:08.337Z,30.53
2022-08-09T10:36:40.230Z,30.08
2022-08-09T10:39:15.523Z,29.97
2022-08-09T10:41:48.328Z,29.76
2022-08-09T10:44:21.696Z,29.17
2022-08-09T10:48:17.314Z,28.89
2022-08-09T10:50:57.071Z,28.76
2022-08-09T10:54:04.974Z,28.98
2022-08-09T10:56:35.773Z,29.03
2022-08-09T10:59:31.313Z,29.24
2022-08-09T11:03:10.824Z,29.90
2022-08-09T11:05:25.105Z,29.85
2022-08-09T11:08:43.579Z,29.66
2022-08-09T11:11:17.862Z,29.73
2022-08-09T11:13:49.787Z,30.53
2022-08-09T11:16:38.166Z,31.11
2022-08-09T11:19:10.525Z,31.21
2022-08-09T11:22:10.827Z,31.54
2022-08-09T11:25:04.713Z,32.05
2022-08-09T11:28:02.855Z,31.97
2022-08-09T11:30:32.975Z,31.41
2022-08-09T11:33:07.903Z,30.83
2022-08-09T11:35:49.683Z,30.22
2022-08-09T11:38:22.067Z,29.84
2022-08-09T11:40:56.575Z,29.71
2022-08-09T11:43:32.238Z,29.42
2022-08-09T11:46:05.829Z,29.33
2022-08-09T11:48:49.070Z,29.27
2022-08-09T11:52:56.979Z,29.38
2022-08-09T11:54:27.951Z,29.34
2022-08-09T11:58:00.823Z,30.28
2022-08-09T12:00:31.031Z,31.17
2022-08-09T12:03:50.271Z,31.47
2022-08-09T12:05:52.256Z,31.30
2022-08-09T12:08:22.663Z,31.32
2022-08-09T12:10:53.773Z,30.83
2022-08-09T12:14:08.035Z,30.80
2022-08-09T12:16:38.247Z,30.90
2022-08-09T12:19:09.480Z,30.18
2022-08-09T12:21:48.484Z,30.07
2022-08-09T12:24:24.363Z,30.24
2022-08-09T12:29:10.493Z,29.74
2022-08-09T12:29:58.615Z,29.49
2022-08-09T12:32:32.882Z,28.77
2022-08-09T12:35:05.624Z,28.82
2022-08-09T12:37:50.426Z,29.11
2022-08-09T12:40:23.350Z,29.56
2022-08-09T12:42:53.976Z,29.92
2022-08-09T12:45:34.649Z,30.60
2022-08-09T12:48:20.401Z,30.99
2022-08-09T12:50:59.362Z,30.93
2022-08-09T12:53:37.211Z,30.47
2022-08-09T12:56:44.282Z,29.84
2022-08-09T12:59:12.153Z,29.82
2022-08-09T13:01:48.823Z,30.21
2022-08-09T13:04:36.319Z,30.19
2022-08-09T13:07:19.383Z,30.91
2022-08-09T13:09:55.345Z,31.63
2022-08-09T13:12:24.222Z,31.66
2022-08-09T13:14:55.075Z,31.61
2022-08-09T13:17:44.374Z,31.99
2022-08-09T13:20:18.902Z,32.00
2022-08-09T13:23:01.762Z,31.33
2022-08-09T13:25:43.569Z,31.73
2022-08-09T13:28:33.807Z,31.38
2022-08-09T13:32:15.468Z,31.65
2022-08-09T13:33:59.140Z,30.80
2022-08-09T13:36:40.888Z,30.20
2022-08-09T13:41:19.119Z,30.84
2022-08-09T13:42:12.080Z,31.14
2022-08-09T13:44:42.797Z,31.46
2022-08-09T13:47:33.377Z,30.69
2022-08-09T13:50:08.676Z,30.26
2022-08-09T13:52:48.281Z,30.42
2022-08-09T13:55:17.554Z,30.48
2022-08-09T13:57:56.033Z,30.50
2022-08-09T14:00:28.319Z,30.75
2022-08-09T14:03:03.864Z,31.12
2022-08-09T14:06:00.033Z,31.17
2022-08-09T14:08:31.740Z,30.97
2022-08-09T14:11:01.435Z,31.51
2022-08-09T14:14:22.045Z,31.89
2022-08-09T14:16:28.219Z,31.77
2022-08-09T14:18:58.419Z,32.14
2022-08-09T14:21:29.575Z,32.30
2022-08-09T14:24:01.256Z,31.74
2022-08-09T14:26:39.162Z,31.51
2022-08-09T14:30:03.891Z,31.49
2022-08-09T14:31:57.480Z,31.29
2022-08-09T14:34:27.191Z,31.27
2022-08-09T14:37:06.758Z,31.69
2022-08-09T14:39:47.173Z,31.71
2022-08-09T14:42:28.746Z,31.40
2022-08-09T14:46:40.279Z,31.26
2022-08-09T14:47:59.379Z,31.30
2022-08-09T14:50:34.212Z,30.83
2022-08-09T14:53:13.006Z,30.94
2022-08-09T14:55:50.274Z,30.44
2022-08-09T14:58:19.192Z,30.61
2022-08-09T15:00:48.527Z,31.19
2022-08-09T15:03:22.951Z,32.03
2022-08-09T15:05:59.742Z,32.95
2022-08-09T15:08:32.316Z,32.52
2022-08-09T15:11:01.238Z,31.66
2022-08-09T15:13:56.663Z,32.56
2022-08-09T15:16:20.258Z,34.04
2022-08-09T15:18:49.320Z,34.77
2022-08-09T15:21:55.920Z,33.98
2022-08-09T15:24:12.996Z,33.40
2022-08-09T15:26:45.869Z,34.20
2022-08-09T15:30:58.947Z,35.30
2022-08-09T15:32:01.910Z,36.44
2022-08-09T15:34:34.277Z,36.83
2022-08-09T15:37:04.104Z,37.01
2022-08-09T15:39:48.751Z,36.53
2022-08-09T15:42:19.818Z,37.38
2022-08-09T15:44:50.197Z,37.94
2022-08-09T15:47:22.626Z,37.02
2022-08-09T15:50:04.632Z,36.64
2022-08-09T15:52:34.536Z,35.50
2022-08-09T15:55:03.280Z,34.61
2022-08-09T15:57:34.492Z,35.18
2022-08-09T16:00:13.798Z,34.88
2022-08-09T16:02:53.533Z,33.99
2022-08-09T16:05:23.177Z,35.42
2022-08-09T16:07:51.157Z,35.87
2022-08-09T16:10:55.157Z,36.45
2022-08-09T16:13:21.154Z,36.29
2022-08-09T16:16:11.343Z,35.59
2022-08-09T16:18:44.683Z,35.62
2022-08-09T16:21:17.597Z,34.98
2022-08-09T16:23:58.597Z,34.44
2022-08-09T16:26:34.023Z,34.65
2022-08-09T16:29:11.098Z,34.80
2022-08-09T16:32:17.965Z,34.08
2022-08-09T16:34:55.197Z,34.09
2022-08-09T16:37:54.917Z,33.91
2022-08-09T16:40:13.628Z,32.00
2022-08-09T16:42:45.422Z,30.61
2022-08-09T16:45:17.638Z,29.91
2022-08-09T16:48:41.088Z,29.95
2022-08-09T16:50:34.700Z,29.88
2022-08-09T16:53:03.335Z,29.31
2022-08-09T16:55:57.861Z,29.40
2022-08-09T16:58:21.500Z,28.98
2022-08-09T17:00:49.528Z,28.41
2022-08-09T17:03:22.178Z,28.25
2022-08-09T17:06:07.687Z,28.29
2022-08-09T17:09:01.659Z,28.18
2022-08-09T17:11:40.742Z,28.20
2022-08-09T17:14:26.738Z,28.08
2022-08-09T17:17:00.160Z,27.95
2022-08-09T17:20:05.074Z,27.80
2022-08-09T17:22:29.010Z,27.26
2022-08-09T17:25:03.495Z,27.36
2022-08-09T17:27:37.539Z,27.32
2022-08-09T17:30:07.166Z,27.18
2022-08-09T17:32:44.408Z,26.98
2022-08-09T17:35:14.508Z,26.68
2022-08-09T17:38:02.116Z,26.55
2022-08-09T17:40:32.030Z,26.58
2022-08-09T17:43:10.880Z,26.36
2022-08-09T17:46:02.696Z,26.16
2022-08-09T17:48:32.733Z,25.53
2022-08-09T17:51:10.305Z,25.67
2022-08-09T17:53:51.780Z,25.70
2022-08-09T17:56:21.828Z,25.44
2022-08-09T17:59:03.375Z,25.10
2022-08-09T18:01:58.055Z,25.09
2022-08-09T18:04:25.037Z,25.15
2022-08-09T18:06:55.667Z,25.06
2022-08-09T18:09:40.792Z,24.89
2022-08-09T18:12:17.521Z,25.06
2022-08-09T18:14:55.185Z,24.94
2022-08-09T18:18:03.924Z,24.79
2022-08-09T18:20:55.323Z,24.73
2022-08-09T18:23:04.823Z,24.37
2022-08-09T18:25:52.597Z,24.24
2022-08-09T18:30:35.698Z,24.23
2022-08-09T18:31:11.030Z,24.26
2022-08-09T18:33:40.007Z,24.04
2022-08-09T18:36:08.764Z,23.72
2022-08-09T18:38:43.126Z,24.05
2022-08-09T18:41:10.444Z,24.09
2022-08-09T18:43:53.163Z,24.14
2022-08-09T18:46:47.907Z,23.96
2022-08-09T18:49:09.207Z,23.92
2022-08-09T18:51:38.416Z,23.63
2022-08-09T18:54:28.280Z,23.12
2022-08-09T18:56:57.145Z,23.36
2022-08-09T18:59:48.447Z,23.41
2022-08-09T19:02:18.508Z,23.31
2022-08-09T19:04:47.791Z,23.34
2022-08-09T19:07:31.413Z,23.21
2022-08-09T19:10:16.602Z,23.17
2022-08-09T19:12:59.531Z,22.92
2022-08-09T19:15:29.313Z,22.95
2022-08-09T19:17:58.541Z,22.94
2022-08-09T19:20:26.700Z,23.00
2022-08-09T19:23:02.858Z,22.87
2022-08-09T19:26:01.285Z,22.95
2022-08-09T19:28:28.507Z,22.86
2022-08-09T19:30:56.479Z,22.83
2022-08-09T19:33:24.770Z,22.14
2022-08-09T19:35:58.454Z,22.33
2022-08-09T19:38:27.725Z,22.47
2022-08-09T19:40:59.793Z,22.51
2022-08-09T19:44:02.088Z,22.38
2022-08-09T19:46:17.006Z,22.32
2022-08-09T19:50:09.150Z,22.32
2022-08-09T19:51:56.096Z,22.21
2022-08-09T19:54:25.350Z,22.20
2022-08-09T19:56:53.344Z,21.88
2022-08-09T19:59:58.443Z,21.79
2022-08-09T20:02:15.789Z,21.96
2022-08-09T20:04:59.020Z,21.73
2022-08-09T20:07:56.627Z,21.53
2022-08-09T20:10:17.660Z,21.59
2022-08-09T20:12:49.825Z,21.20
2022-08-09T20:16:36.455Z,20.91
2022-08-09T20:18:08.350Z,21.04
2022-08-09T20:20:37.678Z,21.36
2022-08-09T20:23:06.898Z,21.36
2022-08-09T20:25:52.462Z,21.32
2022-08-09T20:28:27.475Z,21.31
2022-08-09T20:31:05.032Z,21.04
2022-08-09T20:33:41.213Z,21.16
2022-08-09T20:36:12.805Z,21.22
2022-08-09T20:39:28.818Z,21.07
2022-08-09T20:41:35.199Z,20.76
2022-08-09T20:44:09.754Z,20.98
2022-08-09T20:46:44.104Z,20.53
2022-08-09T20:49:14.016Z,20.68
2022-08-09T20:51:44.504Z,20.34
2022-08-09T20:54:18.865Z,20.44
2022-08-09T20:56:49.881Z,20.27
2022-08-09T20:59:50.233Z,20.12
2022-08-09T21:02:10.988Z,20.22
2022-08-09T21:05:56.817Z,20.28
2022-08-09T21:07:38.449Z,20.31
2022-08-09T21:10:07.143Z,20.29
2022-08-09T21:12:36.750Z,19.57
2022-08-09T21:15:04.622Z,19.68
2022-08-09T21:18:20.691Z,19.86
2022-08-09T21:20:25.753Z,19.87
2022-08-09T21:22:54.867Z,19.56
2022-08-09T21:25:44.047Z,19.32
2022-08-09T21:28:33.526Z,19.59
2022-08-09T21:31:16.386Z,19.64
2022-08-09T21:33:52.576Z,19.55
2022-08-09T21:36:23.076Z,19.52
2022-08-09T21:38:57.675Z,19.68
2022-08-09T21:42:03.605Z,19.91
2022-08-09T21:44:33.715Z,19.88
2022-08-09T21:47:03.846Z,19.86
2022-08-09T21:49:40.218Z,20.02
2022-08-09T21:52:17.845Z,19.86
2022-08-09T21:54:57.157Z,19.80
2022-08-09T21:57:38.894Z,19.96
2022-08-09T22:00:26.739Z,19.72
2022-08-09T22:03:02.120Z,19.79
2022-08-09T22:05:35.471Z,19.71
2022-08-09T22:08:06.824Z,19.69
2022-08-09T22:11:00.992Z,19.49
2022-08-09T22:13:34.271Z,19.46
2022-08-09T22:16:03.993Z,19.27
2022-08-09T22:18:33.102Z,19.31
2022-08-09T22:21:01.882Z,19.09
2022-08-09T22:23:35.111Z,18.90
2022-08-09T22:26:12.199Z,18.97
2022-08-09T22:28:54.271Z,18.98
2022-08-09T22:31:21.883Z,19.21
2022-08-09T22:33:55.281Z,19.13
2022-08-09T22:36:23.346Z,19.13
2022-08-09T22:38:50.501Z,19.30
2022-08-09T22:41:17.681Z,19.29
2022-08-09T22:44:02.983Z,19.34
2022-08-09T22:48:11.357Z,19.04
2022-08-09T22:49:20.645Z,19.05
2022-08-09T22:51:56.962Z,18.87
2022-08-09T22:54:26.977Z,18.74
2022-08-09T22:56:56.606Z,18.92
2022-08-09T22:59:56.251Z,18.65
2022-08-09T23:02:15.712Z,18.87
2022-08-09T23:04:53.459Z,18.99
2022-08-09T23:08:27.672Z,18.74
2022-08-09T23:10:31.134Z,18.96
2022-08-09T23:12:58.952Z,18.72
2022-08-09T23:15:27.078Z,18.71
2022-08-09T23:17:56.310Z,18.92
2022-08-09T23:20:24.061Z,19.01
2022-08-09T23:22:51.432Z,19.08
2022-08-09T23:25:19.043Z,19.00
2022-08-09T23:28:14.142Z,19.13
2022-08-09T23:30:33.768Z,18.87
2022-08-09T23:33:01.192Z,18.62
2022-08-09T23:35:28.366Z,18.52
2022-08-09T23:37:55.948Z,18.55
2022-08-09T23:40:23.165Z,18.48
2022-08-09T23:42:50.401Z,18.64
2022-08-09T23:45:38.231Z,18.45
2022-08-09T23:48:08.794Z,18.45
2022-08-09T23:50:37.324Z,18.43
2022-08-09T23:53:04.951Z,18.19
2022-08-09T23:55:33.267Z,18.38
2022-08-09T23:58:10.634Z,18.17
